createdAt,value
2023-04-15T00:01:19.787Z,96972.19
2023-04-15T00:03:48.785Z,96964.13
2023-04-15T00:06:17.420Z,96962.25
2023-04-15T00:08:45.754Z,96958.75
2023-04-15T00:11:15.972Z,96963.88
2023-04-15T00:13:44.401Z,96959.56
2023-04-15T00:16:12.954Z,96965.75
2023-04-15T00:18:41.397Z,96960.59
2023-04-15T00:21:10.169Z,96971.13
2023-04-15T00:23:38.555Z,96974.88
2023-04-15T00:26:07.559Z,96983.75
2023-04-15T00:28:37.249Z,96987.25
2023-04-15T00:31:05.846Z,96991.81
2023-04-15T00:33:34.219Z,96992.63
2023-04-15T00:36:02.909Z,96996.34
2023-04-15T00:38:31.588Z,96999.88
2023-04-15T00:40:59.993Z,97002.56
2023-04-15T00:43:28.415Z,97006.28
2023-04-15T00:45:58.582Z,97002.56
2023-04-15T00:48:27.211Z,97008.97
2023-04-15T00:50:55.596Z,97008.97
2023-04-15T00:53:24.098Z,97010.84
2023-04-15T00:55:52.457Z,97017.03
2023-04-15T00:58:20.841Z,97019.72
2023-04-15T01:00:49.361Z,97019.91
2023-04-15T01:03:19.216Z,97019.72
2023-04-15T01:05:47.956Z,97017.22
2023-04-15T01:08:16.308Z,97016.22
2023-04-15T01:10:44.780Z,97005.47
2023-04-15T01:13:13.133Z,97018.91
2023-04-15T01:20:31.993Z,97004.63
2023-04-15T01:22:24.315Z,97010.84
2023-04-15T01:24:57.925Z,97006.47
2023-04-15T01:27:29.383Z,97008.16
2023-04-15T01:30:29.393Z,97010.84
2023-04-15T01:33:22.517Z,97015.38
2023-04-15T01:36:05.699Z,97020.75
2023-04-15T01:39:30.306Z,97009.16
2023-04-15T01:47:16.974Z,97015.38
2023-04-15T01:50:22.046Z,97013.72
2023-04-15T01:52:59.716Z,97018.06
2023-04-15T02:00:18.920Z,97017.22
2023-04-15T02:03:11.359Z,97025.28
2023-04-15T02:06:00.175Z,97033.34
2023-04-15T02:09:12.779Z,97040.59
2023-04-15T02:11:46.375Z,97036.03
2023-04-15T02:14:40.770Z,97042.22
2023-04-15T02:17:14.216Z,97052.16
2023-04-15T02:19:48.638Z,97046.78
2023-04-15T02:22:20.096Z,97052.97
2023-04-15T02:28:13.730Z,97054.84
2023-04-15T02:31:00.596Z,97055.66
2023-04-15T02:33:35.165Z,97062.09
2023-04-15T02:36:47.998Z,97059.59
2023-04-15T02:40:21.205Z,97061.28
2023-04-15T02:43:29.338Z,97056.72
2023-04-15T02:46:39.257Z,97072.84
2023-04-15T02:49:22.317Z,97076.56
2023-04-15T02:52:22.109Z,97076.56
2023-04-15T02:54:57.172Z,97083.59
2023-04-15T03:05:15.831Z,97087.31
2023-04-15T03:08:11.601Z,97087.31
2023-04-15T03:15:52.031Z,97106.13
2023-04-15T03:22:05.335Z,97101.78
2023-04-15T03:24:56.822Z,97096.41
2023-04-15T03:27:28.101Z,97104.44
2023-04-15T03:30:17.237Z,97101.78
2023-04-15T03:32:45.752Z,97107.13
2023-04-15T03:35:14.232Z,97108.81
2023-04-15T03:37:42.708Z,97112.50
2023-04-15T03:40:14.065Z,97121.63
2023-04-15T03:42:42.428Z,97115.19
2023-04-15T03:45:12.529Z,97122.44
2023-04-15T03:47:41.034Z,97122.44
2023-04-15T03:50:10.108Z,97134.00
2023-04-15T03:52:38.584Z,97134.00
2023-04-15T03:55:08.523Z,97128.63
2023-04-15T03:57:39.865Z,97134.00
2023-04-15T04:00:10.175Z,97132.38
2023-04-15T04:02:38.682Z,97134.84
2023-04-15T04:05:08.281Z,97141.25
2023-04-15T04:07:36.628Z,97145.56
2023-04-15T04:10:05.478Z,97147.44
2023-04-15T04:12:33.844Z,97139.38
2023-04-15T04:15:03.719Z,97143.94
2023-04-15T04:17:38.704Z,97144.75
2023-04-15T04:20:09.213Z,97136.69
2023-04-15T04:22:40.206Z,97143.13
2023-04-15T04:25:10.264Z,97145.81
2023-04-15T04:27:39.418Z,97154.69
2023-04-15T04:30:10.619Z,97159.22
2023-04-15T04:32:39.108Z,97159.22
2023-04-15T04:35:08.266Z,97161.91
2023-04-15T04:37:36.980Z,97164.59
2023-04-15T04:40:06.558Z,97162.94
2023-04-15T04:42:35.697Z,97168.31
2023-04-15T04:45:05.120Z,97173.31
2023-04-15T04:47:34.907Z,97175.97
2023-04-15T04:50:03.648Z,97169.97
2023-04-15T04:52:32.077Z,97173.69
2023-04-15T04:55:00.431Z,97166.47
2023-04-15T04:57:28.845Z,97170.19
2023-04-15T04:59:57.645Z,97169.34
2023-04-15T05:02:27.622Z,97179.91
2023-04-15T05:04:57.566Z,97178.22
2023-04-15T05:07:25.991Z,97175.56
2023-04-15T05:09:54.360Z,97174.53
2023-04-15T05:12:22.760Z,97181.75
2023-04-15T05:14:51.381Z,97187.97
2023-04-15T05:17:19.762Z,97178.44
2023-04-15T05:19:48.291Z,97178.69
2023-04-15T05:22:18.040Z,97191.06
2023-04-15T05:24:46.666Z,97186.50
2023-04-15T05:27:15.066Z,97190.03
2023-04-15T05:29:43.695Z,97195.41
2023-04-15T05:32:12.118Z,97192.69
2023-04-15T05:34:40.529Z,97195.19
2023-04-15T05:37:08.889Z,97199.34
2023-04-15T05:39:38.805Z,97196.84
2023-04-15T05:42:07.671Z,97196.03
2023-04-15T05:44:36.274Z,97201.41
2023-04-15T05:47:05.950Z,97206.78
2023-04-15T05:49:34.344Z,97200.56
2023-04-15T05:52:02.718Z,97204.72
2023-04-15T05:54:31.314Z,97212.78
2023-04-15T05:57:01.110Z,97213.78
2023-04-15T05:59:29.570Z,97222.06
2023-04-15T06:01:58.066Z,97217.53
2023-04-15T06:04:26.710Z,97216.69
2023-04-15T06:06:55.497Z,97218.34
2023-04-15T06:09:23.972Z,97226.22
2023-04-15T06:11:53.182Z,97221.66
2023-04-15T06:14:22.957Z,97223.09
2023-04-15T06:16:51.503Z,97225.78
2023-04-15T06:19:20.468Z,97230.13
2023-04-15T06:21:48.856Z,97234.50
2023-04-15T06:24:17.276Z,97236.75
2023-04-15T06:26:45.671Z,97239.88
2023-04-15T06:29:14.282Z,97239.44
2023-04-15T06:31:44.106Z,97247.91
2023-04-15T06:34:12.481Z,97242.34
2023-04-15T06:36:40.898Z,97237.59
2023-04-15T06:39:09.286Z,97242.97
2023-04-15T06:41:37.748Z,97245.66
2023-04-15T06:44:06.569Z,97246.06
2023-04-15T06:46:35.027Z,97247.13
2023-04-15T06:49:05.511Z,97251.03
2023-04-15T06:51:33.898Z,97244.00
2023-04-15T06:54:02.477Z,97251.03
2023-04-15T06:56:31.552Z,97249.19
2023-04-15T06:59:00.128Z,97253.50
2023-04-15T07:01:28.852Z,97257.25
2023-04-15T07:03:57.276Z,97252.69
2023-04-15T07:06:27.723Z,97268.63
2023-04-15T07:08:57.450Z,97271.09
2023-04-15T07:11:27.112Z,97270.25
2023-04-15T07:13:55.569Z,97270.03
2023-04-15T07:16:23.987Z,97279.78
2023-04-15T07:18:52.404Z,97274.00
2023-04-15T07:21:20.762Z,97276.06
2023-04-15T07:23:50.544Z,97277.09
2023-04-15T07:26:19.166Z,97273.38
2023-04-15T07:28:47.591Z,97268.81
2023-04-15T07:31:16.590Z,97271.50
2023-04-15T07:33:45.110Z,97280.41
2023-04-15T07:36:13.545Z,97275.66
2023-04-15T07:38:41.948Z,97278.31
2023-04-15T07:41:11.775Z,97280.81
2023-04-15T07:43:40.132Z,97276.91
2023-04-15T07:46:08.531Z,97271.28
2023-04-15T07:48:37.554Z,97271.53
2023-04-15T07:51:06.881Z,97276.25
2023-04-15T07:53:35.747Z,97271.94
2023-04-15T07:56:04.127Z,97271.94
2023-04-15T07:58:33.937Z,97278.75
2023-04-15T08:01:02.328Z,97274.41
2023-04-15T08:03:30.946Z,97267.19
2023-04-15T08:05:59.601Z,97277.09
2023-04-15T08:08:28.128Z,97278.75
2023-04-15T08:10:56.651Z,97275.25
2023-04-15T08:13:24.996Z,97274.41
2023-04-15T08:16:14.744Z,97264.69
2023-04-15T08:18:43.211Z,97267.19
2023-04-15T08:21:11.891Z,97263.66
2023-04-15T08:23:40.333Z,97271.53
2023-04-15T08:26:08.812Z,97272.75
2023-04-15T08:28:38.170Z,97275.84
2023-04-15T08:31:07.917Z,97272.56
2023-04-15T08:33:36.384Z,97265.50
2023-04-15T08:36:04.848Z,97270.88
2023-04-15T08:38:33.562Z,97265.94
2023-04-15T08:41:04.088Z,97270.88
2023-04-15T08:43:36.277Z,97265.50
2023-04-15T08:46:05.061Z,97275.84
2023-04-15T08:48:36.006Z,97275.25
2023-04-15T08:51:04.602Z,97273.19
2023-04-15T08:53:33.828Z,97274.81
2023-04-15T08:56:02.888Z,97277.31
2023-04-15T08:58:31.287Z,97276.28
2023-04-15T09:00:59.698Z,97280.00
2023-04-15T09:03:28.184Z,97281.88
2023-04-15T09:05:58.549Z,97283.72
2023-04-15T09:08:27.007Z,97285.38
2023-04-15T09:10:56.065Z,97280.84
2023-04-15T09:13:24.434Z,97283.53
2023-04-15T09:15:52.980Z,97272.97
2023-04-15T09:18:30.001Z,97281.25
2023-04-15T09:21:06.666Z,97278.75
2023-04-15T09:23:35.163Z,97277.91
2023-04-15T09:26:03.803Z,97278.16
2023-04-15T09:28:32.237Z,97282.69
2023-04-15T09:31:01.294Z,97274.63
2023-04-15T09:33:30.501Z,97285.81
2023-04-15T09:36:02.390Z,97280.84
2023-04-15T09:38:31.149Z,97280.22
2023-04-15T09:40:59.707Z,97277.31
2023-04-15T09:43:39.263Z,97268.84
2023-04-15T09:46:07.785Z,97280.00
2023-04-15T09:48:36.373Z,97277.31
2023-04-15T09:51:06.308Z,97281.25
2023-04-15T09:53:36.702Z,97284.53
2023-04-15T09:56:08.036Z,97287.03
2023-04-15T09:58:38.797Z,97273.16
2023-04-15T10:01:09.257Z,97272.75
2023-04-15T10:03:38.163Z,97268.59
2023-04-15T10:06:08.174Z,97284.34
2023-04-15T10:08:36.732Z,97280.81
2023-04-15T10:11:05.369Z,97274.22
2023-04-15T10:13:36.185Z,97275.03
2023-04-15T10:16:08.218Z,97276.28
2023-04-15T10:18:37.630Z,97279.16
2023-04-15T10:21:07.565Z,97272.16
2023-04-15T10:23:36.151Z,97277.31
2023-04-15T10:26:05.295Z,97278.13
2023-04-15T10:28:33.624Z,97271.94
2023-04-15T10:31:02.054Z,97278.97
2023-04-15T10:33:30.430Z,97274.63
2023-04-15T10:35:58.882Z,97275.66
2023-04-15T10:38:36.305Z,97271.09
2023-04-15T10:41:20.486Z,97275.66
2023-04-15T10:43:51.554Z,97267.38
2023-04-15T10:46:38.734Z,97269.47
2023-04-15T10:49:11.391Z,97274.84
2023-04-15T10:51:41.780Z,97271.28
2023-04-15T10:54:15.688Z,97272.56
2023-04-15T10:56:44.848Z,97281.66
2023-04-15T10:59:13.289Z,97266.34
2023-04-15T11:01:56.713Z,97276.91
2023-04-15T11:04:57.618Z,97280.22
2023-04-15T11:07:37.392Z,97275.84
2023-04-15T11:10:49.841Z,97266.97
2023-04-15T11:13:19.103Z,97273.16
2023-04-15T11:15:47.942Z,97274.22
2023-04-15T11:18:17.476Z,97271.53
2023-04-15T11:20:47.398Z,97275.84
2023-04-15T11:23:17.061Z,97284.75
2023-04-15T11:25:46.928Z,97283.72
2023-04-15T11:28:15.495Z,97283.72
2023-04-15T11:30:44.775Z,97279.16
2023-04-15T11:33:13.996Z,97280.81
2023-04-15T11:35:43.036Z,97285.38
2023-04-15T11:38:12.603Z,97275.44
2023-04-15T11:40:41.222Z,97280.22
2023-04-15T11:43:11.896Z,97286.59
2023-04-15T11:45:53.082Z,97275.84
2023-04-15T11:48:23.708Z,97282.06
2023-04-15T11:50:56.115Z,97285.59
2023-04-15T11:53:24.706Z,97284.75
2023-04-15T11:55:53.906Z,97287.22
2023-04-15T11:58:24.780Z,97287.03
2023-04-15T12:00:54.885Z,97292.63
2023-04-15T12:03:27.682Z,97288.69
2023-04-15T12:06:07.654Z,97291.78
2023-04-15T12:09:04.759Z,97289.53
2023-04-15T12:11:36.084Z,97298.59
2023-04-15T12:14:23.506Z,97293.44
2023-04-15T12:16:54.083Z,97287.84
2023-04-15T12:19:25.973Z,97290.34
2023-04-15T12:21:56.171Z,97290.34
2023-04-15T12:24:25.343Z,97295.09
2023-04-15T12:26:55.086Z,97293.22
2023-04-15T12:29:28.170Z,97295.91
2023-04-15T12:31:57.499Z,97293.03
2023-04-15T12:34:30.639Z,97300.28
2023-04-15T12:36:59.987Z,97298.59
2023-04-15T12:39:30.834Z,97303.56
2023-04-15T12:42:00.335Z,97302.97
2023-04-15T12:44:30.650Z,97301.28
2023-04-15T12:46:59.980Z,97301.09
2023-04-15T12:49:28.770Z,97293.22
2023-04-15T12:51:59.585Z,97296.75
2023-04-15T12:54:28.644Z,97294.06
2023-04-15T12:56:57.137Z,97301.09
2023-04-15T12:59:25.685Z,97301.50
2023-04-15T13:01:55.630Z,97295.31
2023-04-15T13:04:24.249Z,97288.88
2023-04-15T13:06:52.935Z,97289.28
2023-04-15T13:09:22.557Z,97292.22
2023-04-15T13:11:51.281Z,97294.06
2023-04-15T13:14:19.799Z,97291.16
2023-04-15T13:16:48.225Z,97299.03
2023-04-15T13:19:18.050Z,97290.75
2023-04-15T13:21:46.508Z,97298.63
2023-04-15T13:24:14.978Z,97295.72
2023-04-15T13:26:43.502Z,97300.06
2023-04-15T13:29:12.472Z,97310.59
2023-04-15T13:31:41.170Z,97301.53
2023-04-15T13:34:09.670Z,97303.38
2023-04-15T13:36:39.492Z,97302.13
2023-04-15T13:39:07.946Z,97299.44
2023-04-15T13:41:37.560Z,97294.47
2023-04-15T13:44:06.604Z,97299.66
2023-04-15T13:46:35.480Z,97297.38
2023-04-15T13:49:03.939Z,97301.53
2023-04-15T13:51:33.004Z,97303.16
2023-04-15T13:54:03.010Z,97317.44
2023-04-15T13:56:32.384Z,97314.75
2023-04-15T13:59:02.459Z,97312.06
2023-04-15T14:01:30.877Z,97318.66
2023-04-15T14:03:59.365Z,97319.31
2023-04-15T14:06:28.573Z,97314.16
2023-04-15T14:08:57.018Z,97313.94
2023-04-15T14:11:26.822Z,97322.81
2023-04-15T14:13:55.226Z,97317.44
2023-04-15T14:16:23.682Z,97316.63
2023-04-15T14:18:52.105Z,97324.69
2023-04-15T14:21:20.847Z,97312.28
2023-04-15T14:23:49.578Z,97316.63
2023-04-15T14:26:17.981Z,97324.69
2023-04-15T14:28:48.503Z,97324.69
2023-04-15T14:31:17.049Z,97331.09
2023-04-15T14:33:45.457Z,97323.63
2023-04-15T14:36:13.846Z,97331.09
2023-04-15T14:38:42.196Z,97335.03
2023-04-15T14:41:10.974Z,97331.31
2023-04-15T14:43:39.500Z,97334.84
2023-04-15T14:46:09.667Z,97327.78
2023-04-15T14:48:38.117Z,97343.31
2023-04-15T14:51:06.882Z,97331.09
2023-04-15T14:53:35.379Z,97339.78
2023-04-15T14:56:03.938Z,97342.66
2023-04-15T14:58:33.301Z,97342.66
2023-04-15T15:01:02.067Z,97355.06
2023-04-15T15:03:32.386Z,97361.84
2023-04-15T15:06:00.836Z,97364.31
2023-04-15T15:08:29.185Z,97361.00
2023-04-15T15:10:57.539Z,97367.19
2023-04-15T15:13:26.494Z,97367.19
2023-04-15T15:15:54.953Z,97367.81
2023-04-15T15:18:25.526Z,97369.28
2023-04-15T15:20:55.361Z,97369.28
2023-04-15T15:23:23.789Z,97366.59
2023-04-15T15:25:52.224Z,97376.47
2023-04-15T15:28:21.878Z,97371.31
2023-04-15T15:30:50.290Z,97382.06
2023-04-15T15:33:18.674Z,97389.09
2023-04-15T15:35:47.280Z,97383.72
2023-04-15T15:38:17.103Z,97373.38
2023-04-15T15:40:45.580Z,97376.28
2023-04-15T15:43:14.205Z,97377.28
2023-04-15T15:45:42.675Z,97381.84
2023-04-15T15:48:11.279Z,97385.34
2023-04-15T15:50:39.695Z,97381.66
2023-04-15T15:53:08.138Z,97387.03
2023-04-15T15:55:37.906Z,97384.94
2023-04-15T15:58:06.371Z,97396.94
2023-04-15T16:00:34.882Z,97384.53
2023-04-15T16:03:07.117Z,97389.09
2023-04-15T16:05:36.339Z,97397.78
2023-04-15T16:08:04.708Z,97394.25
2023-04-15T16:10:33.120Z,97395.28
2023-04-15T16:13:03.161Z,97389.91
2023-04-15T16:15:31.570Z,97394.25
2023-04-15T16:18:00.117Z,97387.41
2023-04-15T16:20:28.940Z,97388.25
2023-04-15T16:22:58.301Z,97390.50
2023-04-15T16:25:26.710Z,97396.50
2023-04-15T16:28:03.438Z,97401.25
2023-04-15T16:30:36.992Z,97394.88
2023-04-15T16:33:05.775Z,97400.66
2023-04-15T16:35:34.910Z,97402.13
2023-04-15T16:38:03.636Z,97413.91
2023-04-15T16:40:32.979Z,97430.84
2023-04-15T16:43:01.472Z,97416.19
2023-04-15T16:45:30.352Z,97430.22
2023-04-15T16:48:00.263Z,97433.97
2023-04-15T16:50:28.832Z,97439.97
2023-04-15T16:52:57.277Z,97447.00
2023-04-15T16:55:25.795Z,97471.59
2023-04-15T16:58:01.901Z,97493.72
2023-04-15T17:00:32.964Z,97497.06
2023-04-15T17:03:03.480Z,97517.69
2023-04-15T17:05:32.104Z,97507.78
2023-04-15T17:08:00.504Z,97503.25
2023-04-15T17:10:29.011Z,97498.69
2023-04-15T17:12:57.675Z,97492.91
2023-04-15T17:15:26.201Z,97498.88
2023-04-15T17:17:54.756Z,97505.72
2023-04-15T17:20:24.729Z,97499.34
2023-04-15T17:22:53.266Z,97506.56
2023-04-15T17:25:21.916Z,97514.84
2023-04-15T17:27:50.387Z,97512.78
2023-04-15T17:30:18.897Z,97517.94
2023-04-15T17:32:47.406Z,97535.28
2023-04-15T17:35:15.859Z,97569.41
2023-04-15T17:37:48.337Z,97574.59
2023-04-15T17:40:16.908Z,97604.16
2023-04-15T17:42:45.700Z,97590.91
2023-04-15T17:45:15.660Z,97599.94
2023-04-15T17:47:44.480Z,97594.78
2023-04-15T17:50:13.191Z,97598.47
2023-04-15T17:52:41.667Z,97600.59
2023-04-15T17:55:11.695Z,97588.63
2023-04-15T17:57:40.169Z,97585.28
2023-04-15T18:00:11.331Z,97584.47
2023-04-15T18:02:40.228Z,97586.31
2023-04-15T18:05:09.734Z,97592.53
2023-04-15T18:07:38.276Z,97604.09
2023-04-15T18:10:10.454Z,97610.50
2023-04-15T18:12:38.858Z,97612.16
2023-04-15T18:15:09.556Z,97621.91
2023-04-15T18:17:38.007Z,97631.47
2023-04-15T18:20:07.916Z,97623.78
2023-04-15T18:22:36.621Z,97622.50
2023-04-15T18:25:05.756Z,97628.94
2023-04-15T18:27:35.875Z,97621.91
2023-04-15T18:30:04.621Z,97633.91
2023-04-15T18:32:33.099Z,97635.59
2023-04-15T18:35:02.223Z,97646.38
2023-04-15T18:37:30.667Z,97657.31
2023-04-15T18:39:59.246Z,97668.28
2023-04-15T18:42:27.658Z,97661.03
2023-04-15T18:44:57.518Z,97667.88
2023-04-15T18:47:27.284Z,97677.81
2023-04-15T18:49:55.853Z,97668.28
2023-04-15T18:52:24.265Z,97673.00
2023-04-15T18:54:52.678Z,97680.03
2023-04-15T18:57:23.657Z,97671.16
2023-04-15T19:00:01.573Z,97668.66
2023-04-15T19:02:30.126Z,97669.50
2023-04-15T19:04:58.631Z,97667.00
2023-04-15T19:07:27.220Z,97683.97
2023-04-15T19:09:55.667Z,97682.09
2023-04-15T19:12:24.158Z,97687.47
2023-04-15T19:14:52.707Z,97687.66
2023-04-15T19:17:22.557Z,97688.50
2023-04-15T19:19:51.025Z,97691.19
2023-04-15T19:22:19.577Z,97695.72
2023-04-15T19:24:48.014Z,97694.72
2023-04-15T19:27:16.538Z,97691.19
2023-04-15T19:29:45.405Z,97694.72
2023-04-15T19:32:14.436Z,97692.22
2023-04-15T19:34:44.236Z,97694.72
2023-04-15T19:37:12.959Z,97694.72
2023-04-15T19:39:41.377Z,97700.09
2023-04-15T19:42:09.916Z,97689.34
2023-04-15T19:44:42.723Z,97695.97
2023-04-15T19:47:11.248Z,97692.25
2023-04-15T19:49:39.751Z,97695.34
2023-04-15T19:52:09.549Z,97691.81
2023-04-15T19:54:38.024Z,97693.69
2023-04-15T19:57:06.637Z,97695.34
2023-04-15T19:59:35.403Z,97689.97
2023-04-15T20:02:04.103Z,97691.81
2023-04-15T20:04:32.814Z,97696.38
2023-04-15T20:07:01.416Z,97696.16
2023-04-15T20:09:31.255Z,97698.03
2023-04-15T20:12:05.650Z,97696.38
2023-04-15T20:14:48.267Z,97700.72
2023-04-15T20:17:16.711Z,97708.59
2023-04-15T20:19:45.236Z,97709.41
2023-04-15T20:22:13.715Z,97711.28
2023-04-15T20:24:43.432Z,97706.91
2023-04-15T20:27:11.843Z,97713.97
2023-04-15T20:29:40.699Z,97714.78
2023-04-15T20:32:11.491Z,97717.47
2023-04-15T20:34:41.316Z,97704.03
2023-04-15T20:37:09.804Z,97722.84
2023-04-15T20:39:38.260Z,97720.16
2023-04-15T20:42:10.229Z,97727.41
2023-04-15T20:44:39.525Z,97728.25
2023-04-15T20:47:08.165Z,97723.03
2023-04-15T20:49:36.874Z,97722.84
2023-04-15T20:52:05.697Z,97731.09
2023-04-15T20:54:34.171Z,97728.41
2023-04-15T20:57:02.824Z,97738.16
2023-04-15T20:59:32.927Z,97730.28
2023-04-15T21:02:01.529Z,97743.53
2023-04-15T21:04:30.058Z,97740.84
2023-04-15T21:06:58.519Z,97739.16
2023-04-15T21:09:27.008Z,97749.75
2023-04-15T21:12:01.208Z,97748.09
2023-04-15T21:14:32.461Z,97743.53
2023-04-15T21:17:03.419Z,97751.59
2023-04-15T21:19:31.775Z,97749.75
2023-04-15T21:22:01.422Z,97761.31
2023-04-15T21:24:30.029Z,97755.94
2023-04-15T21:26:58.446Z,97756.16
2023-04-15T21:29:27.203Z,97766.06
2023-04-15T21:31:57.055Z,97771.25
2023-04-15T21:34:25.447Z,97770.41
2023-04-15T21:36:53.804Z,97775.16
2023-04-15T21:39:22.266Z,97764.00
2023-04-15T21:41:50.952Z,97764.84
2023-04-15T21:44:19.352Z,97770.22
2023-04-15T21:46:47.739Z,97770.41
2023-04-15T21:49:17.532Z,97764.22
2023-04-15T21:51:46.512Z,97775.16
2023-04-15T21:54:14.887Z,97784.03
2023-04-15T21:56:43.755Z,97786.56
2023-04-15T21:59:12.155Z,97792.09
2023-04-15T22:01:40.659Z,97788.59
2023-04-15T22:04:10.996Z,97794.78
2023-04-15T22:06:41.296Z,97790.44
2023-04-15T22:09:11.958Z,97797.09
2023-04-15T22:11:41.925Z,97812.22
2023-04-15T22:14:10.576Z,97806.00
2023-04-15T22:16:39.017Z,97814.25
2023-04-15T22:19:08.112Z,97813.44
2023-04-15T22:21:36.972Z,97821.28
2023-04-15T22:24:38.888Z,97823.41
2023-04-15T22:26:56.874Z,97826.50
2023-04-15T22:29:25.298Z,97836.59
2023-04-15T22:31:54.020Z,97830.56
2023-04-15T22:34:22.424Z,97828.75
2023-04-15T22:36:50.890Z,97832.44
2023-04-15T22:39:21.065Z,97838.84
2023-04-15T22:41:50.828Z,97843.19
2023-04-15T22:44:19.211Z,97840.50
2023-04-15T22:46:47.744Z,97845.03
2023-04-15T22:49:16.329Z,97851.25
2023-04-15T22:51:45.132Z,97857.28
2023-04-15T22:54:13.475Z,97860.13
2023-04-15T22:56:43.239Z,97864.69
2023-04-15T22:59:11.700Z,97856.81
2023-04-15T23:01:40.182Z,97869.22
2023-04-15T23:04:27.701Z,97868.19
2023-04-15T23:06:56.919Z,97876.25
2023-04-15T23:09:25.272Z,97874.59
2023-04-15T23:11:56.343Z,97874.59
2023-04-15T23:14:26.180Z,97879.16
2023-04-15T23:16:54.667Z,97877.28
2023-04-15T23:19:23.044Z,97874.59
2023-04-15T23:21:51.920Z,97874.44
2023-04-15T23:24:20.301Z,97876.25
2023-04-15T23:26:48.644Z,97882.88
2023-04-15T23:29:18.377Z,97880.19
2023-04-15T23:31:46.797Z,97879.97
2023-04-15T23:34:15.257Z,97886.41
2023-04-15T23:36:43.659Z,97889.09
2023-04-15T23:39:12.231Z,97895.28
2023-04-15T23:41:41.170Z,97896.13
2023-04-15T23:44:09.905Z,97895.28
2023-04-15T23:46:39.955Z,97897.97
2023-04-15T23:49:08.584Z,97897.97
2023-04-15T23:51:37.388Z,97895.28
2023-04-15T23:54:05.904Z,97901.69
2023-04-15T23:56:34.387Z,97901.69
2023-04-15T23:59:02.794Z,97904.38
